Time;durP1;ratioP1;P1;durP2;ratioP2;P2;SDS_P1;SDS_P2;PMS_P1;PMS_P2;Temp;Humidity;BMP_temperature;BMP_pressure;BME280_temperature;BME280_humidity;BME280_pressure;Samples;Min_cycle;Max_cycle;Signal;HPM_P1;HPM_P2
2021/10/09 00:00:07;;;;;;;33.67;21.90;;;;;;;9.84;73.86;101612.06;5036842;28;20058;-79
2021/10/09 00:02:35;;;;;;;30.92;21.25;;;;;;;9.78;74.11;101613.19;5037472;28;20076;-79
2021/10/09 00:05:07;;;;;;;33.53;22.92;;;;;;;9.74;74.64;101610.09;5036940;28;20622;-79
2021/10/09 00:07:35;;;;;;;36.40;23.10;;;;;;;9.66;75.36;101607.91;4971858;28;20491;-79
2021/10/09 00:10:05;;;;;;;35.85;23.98;;;;;;;9.63;75.15;101606.50;4976304;28;20162;-79
2021/10/09 00:12:32;;;;;;;35.38;22.48;;;;;;;9.58;74.84;101600.97;4976384;28;20055;-79
2021/10/09 00:15:00;;;;;;;40.10;26.05;;;;;;;9.56;75.17;101608.75;4976692;28;20066;-78
2021/10/09 00:17:29;;;;;;;36.83;22.75;;;;;;;9.55;75.27;101604.28;4975720;28;20054;-78
2021/10/09 00:19:57;;;;;;;34.90;22.85;;;;;;;9.54;74.93;101609.03;4975756;28;20087;-78
2021/10/09 00:22:25;;;;;;;36.20;23.23;;;;;;;9.53;74.87;101607.38;4970226;28;20055;-79
2021/10/09 00:24:52;;;;;;;39.13;25.02;;;;;;;9.53;75.02;101606.53;4959015;28;20543;-79
2021/10/09 00:27:20;;;;;;;41.00;25.55;;;;;;;9.52;74.82;101613.22;4956851;28;20066;-79
2021/10/09 00:29:48;;;;;;;38.58;24.13;;;;;;;9.50;75.30;101607.09;4957294;28;20128;-78
2021/10/09 00:32:15;;;;;;;41.72;24.75;;;;;;;9.48;75.23;101617.66;4987236;28;20065;-78
2021/10/09 00:34:44;;;;;;;46.50;26.85;;;;;;;9.47;74.72;101613.19;5017301;28;20062;-78
2021/10/09 00:37:11;;;;;;;39.53;23.40;;;;;;;9.45;75.13;101609.84;5017145;28;20054;-78
2021/10/09 00:39:39;;;;;;;38.00;23.23;;;;;;;9.43;74.67;101612.09;5017081;28;20062;-78
2021/10/09 00:42:09;;;;;;;34.65;22.90;;;;;;;9.37;74.80;101610.44;5017057;28;20064;-78
2021/10/09 00:44:37;;;;;;;36.13;23.35;;;;;;;9.37;74.50;101605.72;5017084;28;20429;-78
2021/10/09 00:47:06;;;;;;;34.17;22.50;;;;;;;9.34;74.40;101607.13;5016791;28;20053;-79
2021/10/09 00:49:33;;;;;;;34.55;21.90;;;;;;;9.34;73.76;101609.91;5017710;28;20061;-78
2021/10/09 00:52:05;;;;;;;36.05;22.30;;;;;;;9.32;73.53;101603.78;5015675;28;20058;-78
2021/10/09 00:54:34;;;;;;;35.42;23.92;;;;;;;9.23;74.25;101616.53;5016411;28;20057;-78
2021/10/09 00:57:03;;;;;;;39.97;25.05;;;;;;;9.22;74.30;101603.78;5016346;28;20065;-78
2021/10/09 00:59:30;;;;;;;43.37;26.20;;;;;;;9.20;74.70;101606.00;5015948;28;20062;-78
2021/10/09 01:02:03;;;;;;;38.70;24.83;;;;;;;9.18;74.54;101608.22;5016237;28;20461;-79
2021/10/09 01:04:32;;;;;;;41.20;25.70;;;;;;;9.16;74.85;101606.81;5018476;28;20058;-79
2021/10/09 01:06:59;;;;;;;48.20;28.33;;;;;;;9.14;74.99;101612.66;5035604;28;20053;-78
2021/10/09 01:09:28;;;;;;;53.22;29.33;;;;;;;9.11;75.46;101613.19;5033182;28;20489;-78
2021/10/09 01:11:56;;;;;;;46.78;27.85;;;;;;;9.03;76.32;101599.84;5015671;28;20418;-78
2021/10/09 01:14:23;;;;;;;45.55;27.65;;;;;;;9.05;75.85;101604.03;5015943;28;20422;-78
2021/10/09 01:16:50;;;;;;;49.53;27.92;;;;;;;9.06;75.58;101607.66;5015934;28;20446;-78
2021/10/09 01:19:18;;;;;;;47.63;27.88;;;;;;;9.00;75.68;101601.22;5015654;28;20058;-78
2021/10/09 01:21:50;;;;;;;46.53;27.65;;;;;;;9.02;75.45;101599.00;5015975;28;20065;-78
2021/10/09 01:24:18;;;;;;;47.70;27.30;;;;;;;8.99;75.33;101601.50;5017351;28;20111;-78
2021/10/09 01:26:46;;;;;;;46.20;26.35;;;;;;;9.00;75.61;101603.19;5015743;28;20450;-78
2021/10/09 01:29:15;;;;;;;33.50;21.55;;;;;;;8.97;74.58;101600.97;5015790;28;20062;-78
2021/10/09 01:31:43;;;;;;;36.08;23.25;;;;;;;8.97;74.55;101603.75;5015057;28;20054;-78
2021/10/09 01:34:11;;;;;;;38.30;22.65;;;;;;;8.88;74.81;101609.84;5015428;28;20061;-78
2021/10/09 01:36:41;;;;;;;38.67;25.35;;;;;;;8.89;74.18;101603.16;5015708;28;20057;-79
2021/10/09 01:39:15;;;;;;;42.67;26.08;;;;;;;8.83;74.74;101607.03;5024934;28;20064;-78
2021/10/09 01:41:44;;;;;;;44.45;27.23;;;;;;;8.82;74.66;101605.41;5035856;28;20058;-78
2021/10/09 01:44:12;;;;;;;43.72;26.17;;;;;;;8.77;74.98;101605.38;5035789;28;20057;-78
2021/10/09 01:46:40;;;;;;;40.35;24.73;;;;;;;8.70;75.27;101605.63;5034980;28;20063;-78
2021/10/09 01:49:08;;;;;;;44.65;25.75;;;;;;;8.68;75.29;101598.69;5035838;28;20060;-78
2021/10/09 01:51:35;;;;;;;41.53;24.95;;;;;;;8.72;75.31;101603.41;5035027;28;20057;-78
2021/10/09 01:54:04;;;;;;;40.42;25.10;;;;;;;8.71;74.76;101598.97;5023571;28;20062;-78
2021/10/09 01:56:33;;;;;;;34.28;21.30;;;;;;;8.70;74.90;101594.53;5014492;28;20072;-78
2021/10/09 01:59:00;;;;;;;33.05;21.38;;;;;;;8.64;74.55;101592.00;5014502;28;20077;-78
2021/10/09 02:01:27;;;;;;;33.30;20.88;;;;;;;8.61;74.44;101592.53;5014509;28;20050;-78
2021/10/09 02:03:55;;;;;;;33.35;20.70;;;;;;;8.60;74.30;101594.50;5014437;28;20064;-78
2021/10/09 02:06:22;;;;;;;31.05;20.98;;;;;;;8.55;73.61;101588.94;5014986;28;20054;-78
2021/10/09 02:08:53;;;;;;;30.10;20.60;;;;;;;8.54;73.86;101590.84;5023127;28;20052;-78
2021/10/09 02:11:22;;;;;;;31.80;20.48;;;;;;;8.51;74.10;101594.19;5030449;28;20418;-78
2021/10/09 02:13:55;;;;;;;31.33;20.20;;;;;;;8.52;73.20;101584.78;5033449;28;20061;-78
2021/10/09 02:16:50;;;;;;;29.75;20.13;;;;;;;8.46;73.36;101583.09;5034133;28;20817;-79
2021/10/09 02:25:02;;;;;;;37.63;22.70;;;;;;;8.39;73.51;101576.06;5023560;28;20057;-78
2021/10/09 02:27:29;;;;;;;30.23;20.83;;;;;;;8.38;74.54;101566.91;5033955;28;20053;-78
2021/10/09 02:29:58;;;;;;;28.88;19.25;;;;;;;8.39;74.23;101571.34;5033412;28;20064;-78
2021/10/09 02:32:25;;;;;;;32.57;21.30;;;;;;;8.36;73.61;101571.91;5033047;28;20065;-78
2021/10/09 02:34:53;;;;;;;37.13;21.98;;;;;;;8.34;73.34;101582.44;5033297;28;20057;-78
2021/10/09 02:37:20;;;;;;;31.65;20.52;;;;;;;8.34;73.74;101574.13;5032536;28;20060;-78
2021/10/09 02:39:47;;;;;;;31.80;20.20;;;;;;;8.30;73.62;101570.22;5017562;28;20784;-78
2021/10/09 02:42:14;;;;;;;33.13;19.95;;;;;;;8.26;73.35;101577.41;5012379;28;20054;-77
2021/10/09 02:44:42;;;;;;;31.67;19.90;;;;;;;8.25;73.09;101579.38;5012870;28;20068;-78
2021/10/09 02:47:10;;;;;;;33.88;21.45;;;;;;;8.25;72.91;101584.06;5012647;28;20053;-78
2021/10/09 02:49:38;;;;;;;32.63;20.40;;;;;;;8.22;73.97;101573.53;5012969;28;20057;-78
2021/10/09 02:52:05;;;;;;;30.17;19.98;;;;;;;8.16;73.83;101572.66;5013299;28;20064;-78
2021/10/09 02:54:33;;;;;;;34.65;21.35;;;;;;;8.14;73.37;101575.69;5013969;28;20058;-78
2021/10/09 02:57:00;;;;;;;30.42;19.70;;;;;;;8.13;73.11;101575.97;5017922;28;20057;-77
2021/10/09 02:59:27;;;;;;;30.58;19.55;;;;;;;8.12;73.58;101566.81;5033407;28;20064;-77
2021/10/09 03:01:55;;;;;;;32.50;20.13;;;;;;;8.08;73.34;101573.16;5033226;28;20060;-77
2021/10/09 03:04:24;;;;;;;33.05;21.08;;;;;;;8.05;73.80;101571.78;5032643;28;20413;-78
2021/10/09 03:06:51;;;;;;;32.13;20.77;;;;;;;8.02;74.03;101572.34;5033295;28;20066;-77
2021/10/09 03:09:18;;;;;;;30.52;20.48;;;;;;;8.03;72.80;101573.16;5033163;28;20058;-77
2021/10/09 03:11:49;;;;;;;36.33;21.90;;;;;;;7.98;72.89;101571.19;5028216;28;20087;-77
2021/10/09 03:14:16;;;;;;;39.78;23.42;;;;;;;8.00;72.96;101565.34;5014592;28;20054;-78
2021/10/09 03:16:43;;;;;;;35.75;22.27;;;;;;;7.96;73.29;101567.88;5014382;28;20062;-78
2021/10/09 03:19:10;;;;;;;36.25;22.55;;;;;;;7.96;73.37;101562.31;5015177;28;20065;-78
2021/10/09 03:21:39;;;;;;;35.17;23.33;;;;;;;7.95;73.18;101565.34;5014471;28;20058;-78
2021/10/09 03:24:07;;;;;;;36.13;22.87;;;;;;;7.86;73.88;101562.25;5022382;28;20053;-78
2021/10/09 03:26:34;;;;;;;34.53;22.40;;;;;;;7.84;73.88;101556.97;5018487;28;20054;-78
2021/10/09 03:29:01;;;;;;;38.53;22.50;;;;;;;7.82;73.86;101566.69;5015519;28;20434;-78
2021/10/09 03:31:29;;;;;;;35.28;22.70;;;;;;;7.82;73.94;101563.91;5023868;28;20057;-78
2021/10/09 03:33:56;;;;;;;37.35;23.67;;;;;;;7.81;73.58;101563.06;5027832;28;20077;-78
2021/10/09 03:36:23;;;;;;;40.45;25.15;;;;;;;7.81;73.37;101556.66;5014375;28;20101;-78
2021/10/09 03:38:52;;;;;;;41.40;24.20;;;;;;;7.80;73.38;101557.78;5014277;28;20061;-79
2021/10/09 03:41:20;;;;;;;39.58;24.70;;;;;;;7.80;73.15;101560.56;5014416;28;20065;-78
2021/10/09 03:43:47;;;;;;;43.20;25.67;;;;;;;7.78;73.40;101557.22;5014607;28;20054;-78
2021/10/09 03:46:18;;;;;;;45.85;25.77;;;;;;;7.78;73.24;101560.00;5014858;28;20503;-78
2021/10/09 03:48:56;;;;;;;42.47;24.23;;;;;;;7.72;73.08;101553.56;5019886;28;20053;-78
2021/10/09 03:54:10;;;;;;;42.38;25.23;;;;;;;7.69;73.51;101566.03;5033973;28;20508;-78
2021/10/09 03:56:37;;;;;;;45.57;26.07;;;;;;;7.62;73.03;101565.47;5028987;28;20065;-78
2021/10/09 03:59:05;;;;;;;41.45;24.60;;;;;;;7.62;73.12;101559.06;5017943;28;20049;-78
2021/10/09 04:01:34;;;;;;;35.85;22.80;;;;;;;7.64;73.03;101562.41;5030114;28;20057;-78
2021/10/09 04:04:01;;;;;;;42.35;23.27;;;;;;;7.59;73.20;101565.16;5030630;28;20054;-78
2021/10/09 04:06:29;;;;;;;35.70;22.23;;;;;;;7.60;73.47;101564.88;5029696;28;20086;-78
2021/10/09 04:08:56;;;;;;;39.63;23.20;;;;;;;7.58;73.60;101569.88;5029602;28;20490;-78
2021/10/09 04:11:25;;;;;;;38.85;24.17;;;;;;;7.57;72.90;101562.63;5032178;28;20058;-78
2021/10/09 04:13:52;;;;;;;39.08;23.08;;;;;;;7.54;73.44;101563.19;5035952;28;20053;-78
2021/10/09 04:16:19;;;;;;;38.70;24.80;;;;;;;7.52;73.18;101565.38;5034981;28;20049;-78
2021/10/09 04:18:47;;;;;;;41.45;24.10;;;;;;;7.52;74.21;101565.38;5037226;28;20064;-78
2021/10/09 04:21:14;;;;;;;40.42;23.73;;;;;;;7.50;73.46;101570.38;5037085;28;20120;-78
2021/10/09 04:23:41;;;;;;;37.65;23.02;;;;;;;7.50;72.97;101567.59;5032896;28;20053;-78
2021/10/09 04:26:09;;;;;;;38.63;24.20;;;;;;;7.47;74.07;101570.88;5017533;28;20080;-78
2021/10/09 04:28:38;;;;;;;40.08;24.25;;;;;;;7.48;73.44;101567.03;5024182;28;20060;-78
2021/10/09 04:31:05;;;;;;;44.35;26.02;;;;;;;7.49;73.08;101565.91;5037210;28;20061;-78
2021/10/09 04:33:32;;;;;;;37.65;23.55;;;;;;;7.48;73.04;101567.84;5037033;28;20494;-78
2021/10/09 04:36:00;;;;;;;41.45;24.15;;;;;;;7.43;73.69;101566.97;5032096;28;20061;-78
2021/10/09 04:38:27;;;;;;;39.65;25.27;;;;;;;7.46;73.18;101566.44;5037325;28;20053;-78
2021/10/09 04:40:54;;;;;;;41.72;24.77;;;;;;;7.41;73.24;101569.16;5035071;28;20064;-78
2021/10/09 04:43:21;;;;;;;42.00;24.70;;;;;;;7.41;73.83;101563.63;5033752;28;20054;-78
2021/10/09 04:45:50;;;;;;;38.05;24.55;;;;;;;7.36;73.46;101560.84;5034831;28;20061;-78
2021/10/09 04:48:18;;;;;;;39.03;24.17;;;;;;;7.29;73.52;101567.44;5032614;28;20057;-78
2021/10/09 04:50:45;;;;;;;44.00;26.30;;;;;;;7.29;73.61;101550.81;5016937;28;20474;-78
2021/10/09 04:53:12;;;;;;;41.22;25.02;;;;;;;7.29;73.27;101553.59;5020152;28;20426;-79
2021/10/09 04:55:40;;;;;;;43.30;26.40;;;;;;;7.29;73.37;101561.91;5021881;28;20068;-78
2021/10/09 04:58:07;;;;;;;46.10;25.58;;;;;;;7.27;73.76;101555.78;5024911;28;20311;-78
2021/10/09 05:00:35;;;;;;;45.90;26.40;;;;;;;7.28;73.45;101559.38;5036020;28;20057;-79
2021/10/09 05:03:04;;;;;;;39.90;25.73;;;;;;;7.28;73.83;101554.66;5034013;28;20054;-79
2021/10/09 05:05:34;;;;;;;44.47;25.92;;;;;;;7.26;73.32;101550.50;5031742;28;20057;-79
2021/10/09 05:08:01;;;;;;;38.65;24.55;;;;;;;7.25;73.54;101548.84;5028135;28;20053;-78
2021/10/09 05:10:29;;;;;;;42.42;24.50;;;;;;;7.25;73.41;101555.22;5023649;28;20053;-78
2021/10/09 05:12:56;;;;;;;45.67;26.63;;;;;;;7.23;73.24;101551.03;5026413;28;20064;-78
2021/10/09 05:15:24;;;;;;;42.22;25.77;;;;;;;7.18;73.93;101554.63;5016717;28;20084;-78
2021/10/09 05:17:51;;;;;;;47.10;27.35;;;;;;;7.22;73.65;101552.97;5030513;28;20112;-78
2021/10/09 05:20:20;;;;;;;46.25;27.08;;;;;;;7.22;73.88;101561.28;5022133;28;20054;-78
2021/10/09 05:22:48;;;;;;;45.13;27.43;;;;;;;7.21;73.51;101558.78;5034292;28;20057;-78
2021/10/09 05:25:15;;;;;;;45.97;26.60;;;;;;;7.20;72.98;101555.19;5034778;28;20587;-78
2021/10/09 05:27:51;;;;;;;41.20;25.65;;;;;;;7.14;73.63;101550.69;5032771;28;20060;-78
2021/10/09 05:30:19;;;;;;;43.90;25.73;;;;;;;7.13;72.78;101554.56;5025696;28;20049;-78
2021/10/09 05:32:58;;;;;;;47.13;26.45;;;;;;;7.10;73.40;101557.88;5029923;28;20062;-78
2021/10/09 05:35:27;;;;;;;42.03;25.43;;;;;;;7.09;73.36;101561.72;5036438;28;20470;-78
2021/10/09 05:37:54;;;;;;;45.08;25.40;;;;;;;7.06;73.26;101568.63;5027299;28;20066;-78
2021/10/09 05:40:22;;;;;;;45.65;26.75;;;;;;;7.09;72.92;101558.97;5024090;28;20502;-78
2021/10/09 05:42:49;;;;;;;50.25;27.40;;;;;;;7.11;73.45;101565.06;5030532;28;20053;-78
2021/10/09 05:45:16;;;;;;;54.47;29.13;;;;;;;7.11;73.45;101567.84;5032280;28;20060;-78
2021/10/09 05:47:45;;;;;;;48.58;28.20;;;;;;;7.11;73.28;101576.16;5022927;28;20076;-78
2021/10/09 05:50:13;;;;;;;48.97;28.40;;;;;;;7.11;73.60;101581.69;5026183;28;20057;-78
2021/10/09 05:52:44;;;;;;;44.38;26.67;;;;;;;7.13;73.90;101584.19;5033299;28;20057;-78
2021/10/09 05:55:16;;;;;;;45.83;27.30;;;;;;;7.14;73.02;101574.78;5033962;28;20053;-78
2021/10/09 05:57:53;;;;;;;48.03;27.08;;;;;;;7.15;73.67;101582.00;5017603;28;20057;-78
2021/10/09 06:00:48;;;;;;;46.92;28.10;;;;;;;7.17;72.57;101583.41;5027298;28;20053;-78
2021/10/09 06:25:57;;;;;;;36.88;23.70;;;;;;;7.72;71.52;101609.88;5023637;28;20062;-78
2021/10/09 06:43:09;;;;;;;21.98;15.77;;;;;;;11.60;62.91;101589.31;5064541;28;20382;-60
2021/10/09 06:59:47;;;;;;;19.92;14.88;;;;;;;16.48;47.84;101586.22;5088592;28;20386;-60
2021/10/09 07:02:14;;;;;;;17.80;14.15;;;;;;;17.17;45.74;101597.56;5081968;28;20052;-60
2021/10/09 07:04:42;;;;;;;17.63;14.57;;;;;;;17.69;44.42;101591.03;5081739;28;20051;-60
2021/10/09 07:07:16;;;;;;;19.40;14.85;;;;;;;18.29;42.84;101582.72;5081302;28;20052;-60
2021/10/09 07:09:44;;;;;;;16.98;15.18;;;;;;;18.88;41.65;101587.50;5088055;28;20127;-60
2021/10/09 07:12:11;;;;;;;18.40;15.02;;;;;;;19.42;40.52;101588.38;5084394;28;20060;-61
2021/10/09 07:14:39;;;;;;;18.35;14.75;;;;;;;19.92;39.36;101591.34;5089120;28;20486;-61
2021/10/09 07:17:06;;;;;;;17.13;15.40;;;;;;;20.17;38.59;101595.03;5071410;28;20059;-61
2021/10/09 07:19:33;;;;;;;17.23;14.93;;;;;;;20.74;37.56;101596.09;5072299;28;20044;-60
2021/10/09 07:22:00;;;;;;;17.10;15.35;;;;;;;21.29;36.05;101592.50;5087523;28;20513;-61
2021/10/09 07:24:29;;;;;;;16.58;14.85;;;;;;;21.79;35.23;101603.63;5083049;28;20040;-61
2021/10/09 07:26:57;;;;;;;16.70;14.90;;;;;;;22.14;34.30;101598.06;5077808;28;20049;-61
2021/10/09 07:29:24;;;;;;;16.23;14.48;;;;;;;22.80;33.33;101604.13;5068622;28;20049;-60
2021/10/09 07:31:52;;;;;;;16.08;14.13;;;;;;;22.32;33.80;101601.38;5071532;28;20068;-61
2021/10/09 07:34:19;;;;;;;16.73;14.23;;;;;;;23.32;31.89;101599.19;5080654;28;20529;-60
2021/10/09 07:36:46;;;;;;;16.60;14.57;;;;;;;24.07;30.50;101609.19;5086853;28;20048;-61
2021/10/09 07:39:13;;;;;;;17.70;14.90;;;;;;;24.50;29.73;101598.53;5080132;28;20052;-61
2021/10/09 07:41:42;;;;;;;15.90;14.27;;;;;;;24.97;29.05;101608.63;5088930;28;20056;-62
2021/10/09 07:44:10;;;;;;;16.77;15.07;;;;;;;25.15;28.90;101603.13;5066932;28;20044;-61
2021/10/09 07:46:37;;;;;;;18.55;14.43;;;;;;;25.80;27.92;101604.72;5054998;28;20417;-61
2021/10/09 07:49:05;;;;;;;16.10;14.45;;;;;;;26.13;27.29;101606.72;5065006;28;20056;-61
2021/10/09 07:51:32;;;;;;;16.80;15.07;;;;;;;26.48;27.04;101611.09;5059238;28;20410;-61
2021/10/09 07:54:00;;;;;;;16.98;15.18;;;;;;;26.73;26.62;101610.47;5063311;28;20060;-62
2021/10/09 07:56:27;;;;;;;16.45;14.55;;;;;;;27.43;25.83;101602.69;5064679;28;20396;-62
2021/10/09 07:58:55;;;;;;;15.25;13.75;;;;;;;28.21;25.00;101604.06;5070309;28;20755;-62
2021/10/09 08:01:23;;;;;;;15.57;13.98;;;;;;;28.49;24.84;101606.13;5056781;28;20439;-62
2021/10/09 08:03:51;;;;;;;16.05;14.27;;;;;;;28.88;24.34;101598.69;5055035;28;20041;-62
2021/10/09 08:06:19;;;;;;;15.95;14.45;;;;;;;29.35;23.87;101599.34;5059533;28;20057;-62
2021/10/09 08:08:46;;;;;;;15.98;14.38;;;;;;;29.05;24.13;101603.56;5064171;28;20049;-62
2021/10/09 08:11:14;;;;;;;16.80;14.80;;;;;;;29.52;23.77;101598.47;5070124;28;20052;-62
2021/10/09 08:13:41;;;;;;;17.20;15.60;;;;;;;30.19;23.06;101600.50;5058996;28;20048;-62
2021/10/09 08:16:10;;;;;;;22.67;20.40;;;;;;;29.82;23.32;101604.84;5058395;28;20045;-63
2021/10/09 08:18:38;;;;;;;18.92;17.10;;;;;;;30.01;23.68;101598.59;5055785;28;20060;-62
2021/10/09 08:21:06;;;;;;;25.10;22.50;;;;;;;29.92;23.80;101603.97;5063661;28;20186;-62
2021/10/09 08:23:39;;;;;;;23.42;20.25;;;;;;;30.75;22.96;101604.09;5060794;28;20533;-62
2021/10/09 08:37:21;;;;;;;28.15;24.95;;;;;;;32.57;21.00;101597.06;5054732;28;20064;-62
2021/10/09 08:39:49;;;;;;;21.65;19.30;;;;;;;31.76;21.56;101607.38;5057192;28;20068;-62
2021/10/09 08:42:16;;;;;;;19.92;17.52;;;;;;;32.92;20.94;101604.19;5072060;28;20059;-62
2021/10/09 08:44:44;;;;;;;30.25;25.45;;;;;;;32.89;20.69;101604.28;5068571;28;20414;-62
2021/10/09 08:47:14;;;;;;;21.38;19.17;;;;;;;33.13;20.12;101602.16;5069001;28;20052;-62
2021/10/09 08:49:41;;;;;;;27.05;23.40;;;;;;;33.64;19.71;101599.00;5053683;28;20064;-62
2021/10/09 08:52:08;;;;;;;18.73;16.73;;;;;;;34.53;19.04;101604.66;5055447;28;20415;-62
2021/10/09 08:54:37;;;;;;;17.75;14.63;;;;;;;34.64;18.60;101607.31;5065788;28;20055;-62
2021/10/09 08:57:12;;;;;;;27.30;22.02;;;;;;;35.70;17.18;101607.53;5068106;28;20075;-62
2021/10/09 08:59:47;;;;;;;18.73;16.73;;;;;;;35.40;17.41;101609.66;5053393;28;20053;-62
2021/10/09 09:02:20;;;;;;;32.58;26.02;;;;;;;36.62;16.96;101596.22;5059448;28;20056;-61
2021/10/09 09:27:28;;;;;;;12.85;10.85;;;;;;;40.16;13.67;101599.69;5056812;28;20418;-61
2021/10/09 09:30:49;;;;;;;13.97;10.23;;;;;;;40.32;13.34;101593.47;5053695;28;20049;-61
2021/10/09 09:33:34;;;;;;;12.55;11.20;;;;;;;40.03;13.63;101590.38;5057972;28;20508;-61
2021/10/09 09:36:20;;;;;;;12.82;11.02;;;;;;;40.91;13.21;101589.94;5052385;28;20076;-61
2021/10/09 09:39:04;;;;;;;12.10;10.65;;;;;;;41.42;12.90;101582.09;5071056;28;20057;-61
2021/10/09 09:41:43;;;;;;;12.15;10.93;;;;;;;41.47;12.97;101578.47;5068843;28;20053;-61
2021/10/09 09:44:11;;;;;;;11.60;10.40;;;;;;;41.81;12.52;101573.19;5053509;28;20053;-61
2021/10/09 09:46:39;;;;;;;11.60;10.35;;;;;;;41.84;12.08;101572.19;5054890;28;20495;-61
2021/10/09 09:49:07;;;;;;;11.90;10.10;;;;;;;41.86;12.46;101581.25;5058555;28;20495;-61
2021/10/09 09:51:39;;;;;;;12.77;10.93;;;;;;;41.44;12.11;101573.63;5051916;28;20045;-61
2021/10/09 09:54:07;;;;;;;11.80;9.77;;;;;;;41.27;12.89;101569.63;5071903;28;20053;-61
2021/10/09 09:56:35;;;;;;;11.77;9.48;;;;;;;41.05;12.33;101572.91;5063377;28;20052;-61
2021/10/09 09:59:05;;;;;;;10.48;9.38;;;;;;;40.84;12.46;101580.75;5052661;28;20056;-61
2021/10/09 10:01:35;;;;;;;9.70;8.70;;;;;;;41.80;11.34;101565.72;5051984;28;20059;-60
2021/10/09 10:04:03;;;;;;;10.57;9.13;;;;;;;41.05;11.66;101576.63;5052526;28;20415;-60
2021/10/09 10:06:31;;;;;;;9.88;8.68;;;;;;;40.74;12.38;101580.00;5054056;28;20495;-61
2021/10/09 10:09:00;;;;;;;13.48;9.40;;;;;;;40.85;12.40;101573.59;5052050;28;20056;-61
2021/10/09 10:11:28;;;;;;;10.93;9.18;;;;;;;41.67;11.92;101571.91;5061241;28;20068;-60
2021/10/09 10:13:57;;;;;;;12.57;9.27;;;;;;;42.16;11.72;101573.19;5054475;28;20103;-61
2021/10/09 10:16:26;;;;;;;11.20;8.75;;;;;;;42.74;11.37;101570.50;5060494;28;20048;-60
2021/10/09 10:18:57;;;;;;;11.75;9.05;;;;;;;43.34;10.35;101573.00;5070222;28;20048;-61
2021/10/09 10:21:50;;;;;;;10.75;9.48;;;;;;;43.72;10.36;101570.91;5052806;28;20060;-61
2021/10/09 10:24:46;;;;;;;9.45;8.45;;;;;;;44.45;10.11;101565.50;5062625;28;20544;-61
2021/10/09 10:27:38;;;;;;;11.07;8.55;;;;;;;44.65;9.96;101564.50;5015650;28;20057;-61
2021/10/09 10:30:29;;;;;;;11.00;9.68;;;;;;;44.70;10.27;101568.78;5052309;28;20072;-61
2021/10/09 10:33:42;;;;;;;9.48;8.57;;;;;;;44.97;10.03;101567.28;5051037;28;20499;-61
2021/10/09 10:36:34;;;;;;;9.63;8.55;;;;;;;45.27;9.95;101569.75;5052684;28;20057;-61
2021/10/09 10:39:01;;;;;;;10.63;9.15;;;;;;;45.06;9.65;101564.06;5052864;28;20514;-60
2021/10/09 10:42:00;;;;;;;10.57;8.95;;;;;;;45.18;9.79;101570.78;5051956;28;20495;-60
2021/10/09 10:44:51;;;;;;;10.55;9.25;;;;;;;45.51;9.96;101566.25;5027572;28;20417;-60
2021/10/09 10:47:47;;;;;;;10.45;8.15;;;;;;;45.38;10.05;101567.59;5052590;28;20480;-61
2021/10/09 10:51:11;;;;;;;10.23;9.23;;;;;;;44.60;10.37;101574.09;5052980;28;20057;-61
2021/10/09 10:57:21;;;;;;;10.40;8.45;;;;;;;44.95;10.04;101556.03;5050886;28;20060;-60
2021/10/09 10:59:59;;;;;;;9.93;8.50;;;;;;;45.37;9.88;101560.09;5052209;28;20526;-60
2021/10/09 11:02:36;;;;;;;10.93;9.25;;;;;;;45.40;9.75;101560.38;5052590;28;20071;-61
2021/10/09 11:05:06;;;;;;;10.52;9.10;;;;;;;45.23;9.59;101557.41;5052223;28;20052;-61
2021/10/09 11:07:36;;;;;;;9.88;8.98;;;;;;;45.16;10.53;101556.59;5052347;28;20061;-60
2021/10/09 11:10:11;;;;;;;9.88;8.88;;;;;;;44.83;10.08;101547.72;5052682;28;20060;-62
2021/10/09 11:12:41;;;;;;;10.18;9.07;;;;;;;44.44;11.03;101552.13;5053906;28;20052;-60
2021/10/09 11:15:14;;;;;;;10.43;9.18;;;;;;;44.96;10.58;101551.78;5071599;28;20048;-62
2021/10/09 11:17:43;;;;;;;10.70;9.40;;;;;;;44.89;10.45;101552.28;5072240;28;20057;-61
2021/10/09 11:20:12;;;;;;;12.15;10.82;;;;;;;45.02;10.42;101550.97;5074072;28;20052;-61
2021/10/09 11:22:45;;;;;;;13.25;11.95;;;;;;;44.47;11.09;101550.28;5076100;28;20537;-61
2021/10/09 11:25:23;;;;;;;12.65;11.40;;;;;;;44.11;11.39;101546.91;5073516;28;20063;-61
2021/10/09 11:27:53;;;;;;;13.15;11.80;;;;;;;44.65;11.04;101543.94;5076240;28;20059;-60
2021/10/09 11:30:20;;;;;;;12.80;11.05;;;;;;;44.86;11.37;101541.59;5075768;28;20044;-60
2021/10/09 11:32:48;;;;;;;11.55;10.50;;;;;;;44.26;11.00;101540.81;5075912;28;20056;-60
2021/10/09 11:35:18;;;;;;;12.07;10.63;;;;;;;44.34;10.89;101542.72;5076320;28;20063;-61
2021/10/09 11:37:48;;;;;;;12.07;10.50;;;;;;;44.08;11.22;101536.19;5076130;28;20485;-61
2021/10/09 11:40:16;;;;;;;15.60;11.20;;;;;;;44.52;10.60;101541.50;5056246;28;20048;-61
2021/10/09 11:42:55;;;;;;;;;;;;;;;44.57;10.67;101540.69;5059773;28;20399;-60
2021/10/09 11:45:28;;;;;;;12.52;11.15;;;;;;;44.64;11.48;101544.47;5073083;28;19920;-60
2021/10/09 11:53:41;;;;;;;13.05;11.75;;;;;;;45.51;10.64;101545.63;5059140;28;20049;-61
2021/10/09 11:56:11;;;;;;;12.15;10.32;;;;;;;45.74;10.12;101526.66;5061680;28;20049;-60
2021/10/09 11:58:52;;;;;;;12.25;10.88;;;;;;;46.25;9.94;101537.50;5055549;28;20056;-61
2021/10/09 12:01:29;;;;;;;11.90;10.70;;;;;;;46.80;9.78;101532.66;5059333;28;20403;-60
2021/10/09 12:03:58;;;;;;;15.13;11.83;;;;;;;47.05;9.21;101520.94;5054546;28;20049;-60
2021/10/09 12:06:44;;;;;;;13.20;11.57;;;;;;;46.95;9.58;101526.38;5054641;28;20813;-60
2021/10/09 12:09:14;;;;;;;12.90;11.50;;;;;;;46.11;10.44;101528.41;5064025;28;20111;-61
2021/10/09 12:11:42;;;;;;;13.55;12.13;;;;;;;45.54;10.26;101524.78;5067159;28;20064;-61
2021/10/09 12:14:11;;;;;;;13.35;11.95;;;;;;;45.16;11.28;101529.31;5060283;28;20056;-61
2021/10/09 12:16:43;;;;;;;11.70;10.60;;;;;;;46.10;10.43;101517.19;5061901;28;20052;-61
2021/10/09 12:19:12;;;;;;;13.85;11.27;;;;;;;44.58;10.87;101517.97;5062730;28;20056;-61
2021/10/09 12:21:41;;;;;;;13.43;11.13;;;;;;;43.87;11.45;101521.66;5056234;28;20053;-61
2021/10/09 12:24:14;;;;;;;12.40;11.15;;;;;;;44.78;11.25;101511.09;5052795;28;20060;-60
2021/10/09 12:26:42;;;;;;;12.25;10.60;;;;;;;44.17;11.33;101509.56;5053281;28;20055;-60
2021/10/09 12:29:14;;;;;;;12.55;11.30;;;;;;;44.97;10.46;101511.41;5054397;28;20064;-60
2021/10/09 12:31:47;;;;;;;14.70;11.55;;;;;;;45.41;10.15;101501.00;5055711;28;20049;-60
2021/10/09 12:34:33;;;;;;;13.63;11.70;;;;;;;45.48;10.61;101502.59;5053648;28;20402;-60
2021/10/09 12:37:28;;;;;;;12.40;10.32;;;;;;;45.58;10.33;101492.91;5052407;28;20487;-60
2021/10/09 12:40:14;;;;;;;12.20;10.93;;;;;;;45.63;10.34;101488.38;5035092;28;20407;-60
2021/10/09 12:42:49;;;;;;;11.82;10.73;;;;;;;44.97;10.37;101497.50;5053292;28;20053;-60
2021/10/09 12:45:18;;;;;;;18.02;11.30;;;;;;;45.39;10.17;101494.84;5071473;28;20049;-61
2021/10/09 12:47:46;;;;;;;12.40;11.20;;;;;;;44.59;10.79;101493.16;5074087;28;20410;-62
2021/10/09 12:50:15;;;;;;;14.15;12.00;;;;;;;44.41;11.05;101497.34;5073956;28;20056;-62
2021/10/09 12:52:44;;;;;;;;;;;;;;;43.32;11.67;101496.44;5074471;28;20072;-62
2021/10/09 12:55:13;;;;;;;12.32;10.70;;;;;;;43.20;12.16;101498.47;5074057;28;19947;-61
2021/10/09 12:57:49;;;;;;;15.18;11.35;;;;;;;43.41;11.90;101489.56;5071141;28;20063;-62
2021/10/09 13:00:16;;;;;;;13.45;11.00;;;;;;;42.94;12.10;101492.63;5062595;28;20056;-61
2021/10/09 13:02:44;;;;;;;12.25;10.35;;;;;;;41.49;13.32;101493.94;5054942;28;20486;-61
2021/10/09 13:05:13;;;;;;;12.63;11.10;;;;;;;41.51;13.19;101488.38;5054655;28;20514;-62
2021/10/09 13:07:40;;;;;;;11.32;10.18;;;;;;;41.12;13.55;101490.66;5064098;28;20057;-62
2021/10/09 13:10:10;;;;;;;11.07;9.77;;;;;;;41.30;13.22;101492.56;5069848;28;20063;-61
2021/10/09 13:12:37;;;;;;;12.05;9.85;;;;;;;41.33;13.52;101479.88;5052734;28;20060;-61